Time;durP1;ratioP1;P1;durP2;ratioP2;P2;SDS_P1;SDS_P2;PMS_P1;PMS_P2;Temp;Humidity;BMP_temperature;BMP_pressure;BME280_temperature;BME280_humidity;BME280_pressure;Samples;Min_cycle;Max_cycle;Signal;HPM_P1;HPM_P2
2022/12/02 00:01:16;;;;;;;45.85;22.98;;;4.30;99.90;;;;;;5035452;28;20044;-52
2022/12/02 00:03:42;;;;;;;46.92;23.27;;;4.30;99.90;;;;;;5053679;28;20045;-54
2022/12/02 00:06:14;;;;;;;46.53;22.85;;;4.30;99.90;;;;;;5053177;28;20063;-53
2022/12/02 00:08:40;;;;;;;48.28;23.70;;;4.20;99.90;;;;;;5052956;28;20080;-50
2022/12/02 00:11:28;;;;;;;46.22;22.35;;;4.20;99.90;;;;;;5052961;28;20076;-50
2022/12/02 00:13:57;;;;;;;42.65;22.73;;;4.20;99.90;;;;;;5052724;28;20037;-51
2022/12/02 00:16:24;;;;;;;49.30;23.05;;;4.30;99.90;;;;;;5052702;28;20049;-51
2022/12/02 00:18:51;;;;;;;48.50;23.50;;;4.30;99.90;;;;;;5052828;28;20049;-52
2022/12/02 00:21:17;;;;;;;46.72;22.90;;;4.30;99.90;;;;;;5052836;28;20041;-51
2022/12/02 00:23:42;;;;;;;48.33;22.88;;;4.30;99.90;;;;;;5052632;28;20053;-54
2022/12/02 00:26:08;;;;;;;44.95;24.05;;;4.30;99.90;;;;;;5034940;28;20049;-51
2022/12/02 00:28:34;;;;;;;45.50;22.58;;;4.30;99.90;;;;;;5052634;28;20033;-55
2022/12/02 00:31:00;;;;;;;49.15;23.63;;;4.30;99.90;;;;;;5052738;28;20134;-52
2022/12/02 00:33:26;;;;;;;46.38;23.25;;;4.30;99.90;;;;;;5052700;28;20098;-53
2022/12/02 00:35:51;;;;;;;47.17;22.58;;;4.30;99.90;;;;;;5052642;28;20041;-51
2022/12/02 00:38:17;;;;;;;43.53;22.42;;;4.30;99.90;;;;;;5052799;28;20489;-54
2022/12/02 00:40:42;;;;;;;44.90;22.67;;;4.30;99.90;;;;;;5034643;28;20048;-51
2022/12/02 00:48:37;;;;;;;45.33;22.50;;;4.40;99.90;;;;;;5052321;28;20114;-52
2022/12/02 00:51:03;;;;;;;48.22;23.60;;;4.20;99.90;;;;;;5052354;28;20043;-51
2022/12/02 00:53:29;;;;;;;45.20;23.33;;;4.30;99.90;;;;;;5052464;28;20078;-52
2022/12/02 00:55:55;;;;;;;47.35;23.85;;;4.30;99.90;;;;;;5050015;28;20029;-51
2022/12/02 00:58:21;;;;;;;46.03;23.00;;;4.20;99.90;;;;;;5032170;28;20033;-51
2022/12/02 01:00:46;;;;;;;46.35;23.70;;;4.30;99.90;;;;;;5032321;28;20122;-52
2022/12/02 01:03:13;;;;;;;41.95;21.98;;;4.30;99.90;;;;;;5032367;28;20138;-52
2022/12/02 01:05:38;;;;;;;43.50;22.08;;;4.20;99.90;;;;;;5032093;28;20052;-51
2022/12/02 01:08:04;;;;;;;46.45;23.38;;;4.20;99.90;;;;;;5032113;28;20034;-50
2022/12/02 01:10:30;;;;;;;45.60;22.27;;;4.20;99.90;;;;;;5031901;28;20033;-50
2022/12/02 01:12:55;;;;;;;47.90;23.00;;;4.30;99.90;;;;;;5032103;28;20030;-51
2022/12/02 01:15:21;;;;;;;44.42;23.63;;;4.10;99.90;;;;;;5032051;28;20045;-51
2022/12/02 01:17:47;;;;;;;42.95;22.90;;;4.10;99.90;;;;;;5031965;28;20073;-55
2022/12/02 01:20:12;;;;;;;44.17;21.80;;;4.10;99.90;;;;;;5031909;28;20092;-54
2022/12/02 01:22:38;;;;;;;47.97;22.15;;;4.10;99.90;;;;;;5031925;28;20040;-56
2022/12/02 01:25:05;;;;;;;46.25;20.90;;;4.10;99.90;;;;;;5031802;28;20053;-52
2022/12/02 01:27:30;;;;;;;47.13;22.02;;;4.00;99.90;;;;;;5031464;28;20037;-53
2022/12/02 01:29:56;;;;;;;43.90;20.73;;;4.00;99.90;;;;;;5031841;28;20193;-55
2022/12/02 01:32:23;;;;;;;43.65;19.92;;;4.00;99.90;;;;;;5032074;28;20078;-55
2022/12/02 01:34:49;;;;;;;42.00;20.52;;;4.00;99.90;;;;;;5031731;28;20395;-51
2022/12/02 01:37:15;;;;;;;44.28;21.52;;;3.90;99.90;;;;;;5032086;28;20049;-52
2022/12/02 01:39:41;;;;;;;42.58;21.10;;;3.90;99.90;;;;;;5031971;28;20041;-51
2022/12/02 01:42:07;;;;;;;45.08;20.77;;;3.90;99.90;;;;;;5031933;28;20041;-51
2022/12/02 01:44:33;;;;;;;41.55;20.60;;;3.90;99.90;;;;;;5031854;28;20081;-52
2022/12/02 01:46:59;;;;;;;42.92;20.58;;;3.90;99.90;;;;;;5031857;28;20046;-54
2022/12/02 01:49:25;;;;;;;43.88;20.77;;;4.00;99.90;;;;;;5014220;28;20053;-54
2022/12/02 01:51:51;;;;;;;42.17;20.73;;;3.90;99.90;;;;;;5031596;28;20045;-52
2022/12/02 01:54:17;;;;;;;43.70;20.90;;;4.00;99.90;;;;;;5032080;28;20411;-51
2022/12/02 01:56:43;;;;;;;45.35;21.52;;;3.90;99.90;;;;;;5040492;28;20033;-53
2022/12/02 01:59:11;;;;;;;46.60;20.85;;;3.90;99.90;;;;;;5051479;28;20033;-51
2022/12/02 02:01:37;;;;;;;46.08;21.55;;;3.90;99.90;;;;;;5051514;28;20049;-55
2022/12/02 02:04:03;;;;;;;44.30;20.23;;;3.90;99.90;;;;;;5051484;28;20405;-53
2022/12/02 02:06:33;;;;;;;45.63;20.30;;;3.80;99.90;;;;;;5051433;28;20055;-52
2022/12/02 02:08:59;;;;;;;44.78;20.90;;;3.90;99.90;;;;;;5051866;28;20063;-52
2022/12/02 02:11:25;;;;;;;47.58;22.88;;;3.80;99.90;;;;;;5051332;28;20493;-52
2022/12/02 02:13:52;;;;;;;45.88;20.88;;;3.90;99.90;;;;;;5051334;28;20037;-52
2022/12/02 02:16:18;;;;;;;47.75;22.10;;;3.90;99.90;;;;;;5033726;28;20045;-51
2022/12/02 02:18:44;;;;;;;54.03;23.35;;;3.90;99.90;;;;;;5051250;28;20043;-51
2022/12/02 02:21:16;;;;;;;48.28;22.45;;;3.90;99.90;;;;;;5033382;28;20045;-54
2022/12/02 02:23:41;;;;;;;43.67;21.05;;;3.90;99.90;;;;;;5051257;28;20096;-54
2022/12/02 02:26:07;;;;;;;51.67;21.83;;;3.90;99.90;;;;;;5033541;28;20088;-52
2022/12/02 02:28:33;;;;;;;48.13;21.70;;;3.90;99.90;;;;;;5051265;28;20078;-56
2022/12/02 02:30:59;;;;;;;53.35;23.92;;;3.90;99.90;;;;;;5051230;28;20092;-54
2022/12/02 02:33:28;;;;;;;49.00;21.20;;;3.90;99.90;;;;;;5033608;28;20120;-52
2022/12/02 02:35:54;;;;;;;53.08;21.48;;;3.90;99.90;;;;;;5051379;28;20041;-54
2022/12/02 02:38:25;;;;;;;51.35;22.67;;;3.90;99.90;;;;;;5051798;28;20068;-51
2022/12/02 02:40:52;;;;;;;53.92;22.92;;;3.90;99.90;;;;;;5054785;28;20049;-53
2022/12/02 02:43:20;;;;;;;56.95;23.50;;;3.90;99.90;;;;;;5036772;28;20093;-55
2022/12/02 02:45:47;;;;;;;52.88;22.92;;;4.00;99.90;;;;;;5055069;28;20032;-54
2022/12/02 02:48:14;;;;;;;51.08;23.17;;;3.90;99.90;;;;;;5054765;28;20090;-55
2022/12/02 02:50:43;;;;;;;54.63;23.88;;;3.90;99.90;;;;;;5054498;28;20055;-54
2022/12/02 02:53:09;;;;;;;53.17;22.52;;;3.80;99.90;;;;;;5054473;28;20126;-54
2022/12/02 02:55:35;;;;;;;48.25;21.52;;;3.80;99.90;;;;;;5054471;28;20130;-51
2022/12/02 02:58:18;;;;;;;54.65;23.80;;;3.80;99.90;;;;;;5034825;28;20080;-51
2022/12/02 03:00:45;;;;;;;;;;;3.80;99.90;;;;;;5035071;28;20088;-51
2022/12/02 03:03:13;;;;;;;47.95;22.05;;;3.90;99.90;;;;;;5034539;28;19940;-51
2022/12/02 03:05:39;;;;;;;49.75;21.63;;;3.90;99.90;;;;;;5034252;28;20559;-55
2022/12/02 03:08:06;;;;;;;56.28;22.60;;;3.90;99.90;;;;;;5034059;28;20041;-51
2022/12/02 03:10:31;;;;;;;47.58;22.88;;;3.90;99.90;;;;;;5034136;28;20048;-54
2022/12/02 03:12:58;;;;;;;45.47;21.83;;;3.80;99.90;;;;;;5034026;28;20461;-55
2022/12/02 03:15:26;;;;;;;45.85;21.50;;;3.90;99.90;;;;;;5034255;28;20394;-52
2022/12/02 03:17:52;;;;;;;50.67;22.45;;;3.90;99.90;;;;;;5034222;28;20116;-51
2022/12/02 03:20:20;;;;;;;47.95;21.33;;;3.90;99.90;;;;;;5034236;28;20091;-51
2022/12/02 03:22:45;;;;;;;52.63;22.05;;;3.90;99.90;;;;;;5034103;28;20045;-56
2022/12/02 03:25:11;;;;;;;50.05;23.75;;;3.90;99.90;;;;;;5033858;28;20426;-51
2022/12/02 03:27:37;;;;;;;46.72;22.88;;;3.90;99.90;;;;;;5033857;28;20064;-54
2022/12/02 03:30:04;;;;;;;48.83;24.05;;;3.90;99.90;;;;;;5034107;28;20069;-53
2022/12/02 03:32:29;;;;;;;46.65;21.02;;;3.90;99.90;;;;;;5033920;28;20049;-54
2022/12/02 03:34:55;;;;;;;49.15;23.55;;;3.90;99.90;;;;;;5033923;28;20060;-53
2022/12/02 03:37:22;;;;;;;42.45;20.63;;;3.90;99.90;;;;;;5033592;28;20080;-55
2022/12/02 03:39:48;;;;;;;47.50;19.33;;;3.90;99.90;;;;;;5015935;28;20526;-54
2022/12/02 03:42:14;;;;;;;45.35;21.33;;;3.80;99.90;;;;;;5033538;28;20091;-52
2022/12/02 03:44:40;;;;;;;44.92;20.88;;;3.80;99.90;;;;;;5033868;28;20037;-51
2022/12/02 03:47:06;;;;;;;42.03;19.63;;;3.80;99.90;;;;;;5033593;28;20044;-51
2022/12/02 03:49:33;;;;;;;42.30;20.35;;;3.80;99.90;;;;;;5033179;28;20045;-50
2022/12/02 03:51:59;;;;;;;42.53;19.75;;;3.80;99.90;;;;;;5033480;28;20394;-50
2022/12/02 03:54:25;;;;;;;44.78;19.92;;;3.90;99.90;;;;;;5033397;28;20037;-50
2022/12/02 03:56:51;;;;;;;41.80;19.63;;;3.90;99.90;;;;;;5043222;28;20037;-51
2022/12/02 03:59:22;;;;;;;40.35;19.20;;;3.80;99.90;;;;;;5053060;28;20048;-52
2022/12/02 04:01:48;;;;;;;40.28;19.52;;;3.80;99.90;;;;;;5053165;28;20052;-51
2022/12/02 04:04:14;;;;;;;46.08;20.00;;;3.90;99.90;;;;;;5053133;28;20045;-52
2022/12/02 04:06:40;;;;;;;42.40;18.90;;;3.90;99.90;;;;;;5053129;28;20508;-50
2022/12/02 04:09:05;;;;;;;45.22;19.90;;;3.80;99.90;;;;;;5053023;28;20105;-54
2022/12/02 04:11:31;;;;;;;40.92;19.38;;;3.90;99.90;;;;;;5052782;28;20037;-55
2022/12/02 04:13:57;;;;;;;41.03;19.27;;;3.80;99.90;;;;;;5052955;28;20037;-54
2022/12/02 04:16:22;;;;;;;40.70;19.50;;;3.80;99.90;;;;;;5052883;28;20040;-51
2022/12/02 04:18:48;;;;;;;44.30;20.38;;;3.90;99.90;;;;;;5052693;28;20109;-55
2022/12/02 04:21:13;;;;;;;38.88;18.05;;;3.90;99.90;;;;;;5052881;28;20087;-55
2022/12/02 04:23:39;;;;;;;44.17;20.95;;;3.90;99.90;;;;;;5034731;28;20084;-51
2022/12/02 04:26:05;;;;;;;43.58;19.27;;;3.70;99.90;;;;;;5052714;28;20065;-53
2022/12/02 04:28:30;;;;;;;39.92;19.60;;;3.80;99.90;;;;;;5052787;28;20098;-50
2022/12/02 04:30:56;;;;;;;47.33;21.35;;;3.80;99.90;;;;;;5052739;28;20393;-55
2022/12/02 04:33:22;;;;;;;43.53;20.17;;;3.80;99.90;;;;;;5052658;28;20029;-54
2022/12/02 04:35:47;;;;;;;45.38;20.65;;;3.80;99.90;;;;;;5034763;28;20091;-56
2022/12/02 04:38:13;;;;;;;41.60;19.08;;;3.80;99.90;;;;;;5052310;28;20052;-54
2022/12/02 04:40:39;;;;;;;47.90;22.60;;;3.90;99.90;;;;;;5052394;28;20040;-53
2022/12/02 04:43:05;;;;;;;46.72;21.92;;;3.90;99.90;;;;;;5052467;28;20051;-52
2022/12/02 04:45:31;;;;;;;45.03;20.73;;;3.90;99.90;;;;;;5052556;28;20424;-50
2022/12/02 04:47:57;;;;;;;48.63;20.75;;;3.90;99.90;;;;;;5052215;28;20043;-51
2022/12/02 04:50:23;;;;;;;46.03;20.48;;;3.80;99.90;;;;;;5052301;28;20128;-51
2022/12/02 04:52:48;;;;;;;43.85;21.35;;;3.70;99.90;;;;;;5052161;28;20041;-52
2022/12/02 04:55:14;;;;;;;46.22;22.38;;;3.80;99.90;;;;;;5052457;28;20112;-50
2022/12/02 04:57:40;;;;;;;44.97;21.23;;;3.90;99.90;;;;;;5035940;28;20029;-50
2022/12/02 05:00:07;;;;;;;45.83;22.02;;;3.90;99.90;;;;;;5032276;28;20497;-51
2022/12/02 05:02:33;;;;;;;45.15;21.50;;;3.90;99.90;;;;;;5013950;28;20128;-51
2022/12/02 05:04:58;;;;;;;49.80;22.92;;;3.90;99.90;;;;;;5032215;28;20078;-52
2022/12/02 05:07:24;;;;;;;48.28;21.98;;;3.90;99.90;;;;;;5032065;28;20398;-51
2022/12/02 05:09:50;;;;;;;45.72;21.05;;;3.90;99.90;;;;;;5032261;28;20116;-50
2022/12/02 05:12:16;;;;;;;44.65;20.05;;;3.80;99.90;;;;;;5031907;28;20041;-54
2022/12/02 05:14:41;;;;;;;43.42;21.02;;;3.90;99.90;;;;;;5032163;28;20052;-50
2022/12/02 05:17:07;;;;;;;47.30;19.15;;;3.90;99.90;;;;;;5032146;28;20117;-52
2022/12/02 05:19:33;;;;;;;41.60;17.08;;;3.90;99.90;;;;;;5032012;28;20048;-51
2022/12/02 05:21:59;;;;;;;46.92;19.20;;;3.90;99.90;;;;;;5031912;28;20076;-52
2022/12/02 05:24:24;;;;;;;42.95;19.25;;;3.80;99.90;;;;;;5031823;28;20057;-54
2022/12/02 05:26:50;;;;;;;46.65;18.83;;;3.90;99.90;;;;;;5014445;28;20050;-54
2022/12/02 05:29:16;;;;;;;48.45;18.73;;;3.80;99.90;;;;;;5031992;28;20042;-51
2022/12/02 05:31:41;;;;;;;51.65;20.15;;;3.80;99.90;;;;;;5031935;28;20064;-54
2022/12/02 05:34:07;;;;;;;49.88;19.90;;;3.70;99.90;;;;;;5031868;28;20536;-53
2022/12/02 05:36:32;;;;;;;54.88;20.65;;;3.70;99.90;;;;;;5032252;28;20124;-52
2022/12/02 05:38:58;;;;;;;55.22;20.58;;;3.80;99.90;;;;;;5031719;28;20561;-55
2022/12/02 05:41:24;;;;;;;45.70;18.08;;;3.80;99.90;;;;;;5031899;28;20180;-51
2022/12/02 05:43:49;;;;;;;53.08;20.33;;;3.70;99.90;;;;;;5031639;28;20398;-50
2022/12/02 05:46:18;;;;;;;52.28;19.90;;;3.70;99.90;;;;;;5031806;28;20037;-51
2022/12/02 05:48:45;;;;;;;52.15;18.88;;;3.70;99.90;;;;;;5031746;28;20041;-51
2022/12/02 05:51:13;;;;;;;50.13;19.33;;;3.70;99.90;;;;;;5031508;28;20103;-51
2022/12/02 05:53:40;;;;;;;50.50;20.23;;;3.70;99.90;;;;;;5031965;28;20042;-52
2022/12/02 05:56:15;;;;;;;53.58;20.10;;;3.70;99.90;;;;;;5035356;28;20398;-52
2022/12/02 05:58:41;;;;;;;54.47;19.42;;;3.70;99.90;;;;;;5051563;28;20037;-54
2022/12/02 06:01:35;;;;;;;47.45;19.52;;;3.70;99.90;;;;;;5051265;28;20036;-51
2022/12/02 06:04:01;;;;;;;55.05;20.15;;;3.90;99.90;;;;;;5033238;28;20052;-53
2022/12/02 06:06:29;;;;;;;50.25;19.42;;;3.60;99.90;;;;;;5051600;28;20089;-51
2022/12/02 06:08:55;;;;;;;50.10;20.20;;;3.70;99.90;;;;;;5051538;28;20401;-54
2022/12/02 06:11:33;;;;;;;54.30;20.40;;;3.60;99.90;;;;;;5033443;28;20040;-51
2022/12/02 06:14:04;;;;;;;54.75;21.92;;;3.70;99.90;;;;;;5054308;28;20475;-52
2022/12/02 06:16:30;;;;;;;49.60;19.33;;;3.60;99.90;;;;;;5055328;28;20048;-51
2022/12/02 06:18:59;;;;;;;55.40;19.73;;;3.60;99.90;;;;;;5020698;28;20041;-54
2022/12/02 06:21:26;;;;;;;55.53;20.77;;;3.50;99.90;;;;;;5055137;28;20084;-51
2022/12/02 06:23:56;;;;;;;54.33;20.40;;;3.50;99.90;;;;;;5055011;28;20064;-52
2022/12/02 06:26:22;;;;;;;52.90;20.23;;;3.50;99.90;;;;;;5054959;28;20208;-50
2022/12/02 06:29:02;;;;;;;50.92;18.88;;;3.50;99.90;;;;;;5055244;28;20040;-52
2022/12/02 06:31:36;;;;;;;51.35;19.75;;;3.50;99.90;;;;;;5054854;28;20044;-51
2022/12/02 06:34:19;;;;;;;51.25;21.02;;;3.50;99.90;;;;;;5054876;28;20044;-52
2022/12/02 06:36:45;;;;;;;50.28;20.77;;;3.50;99.90;;;;;;5054611;28;20048;-49
2022/12/02 06:39:29;;;;;;;55.10;22.00;;;3.60;99.90;;;;;;5054748;28;20033;-55
2022/12/02 06:41:55;;;;;;;63.33;23.65;;;3.60;99.90;;;;;;5037020;28;20080;-51
2022/12/02 06:47:31;;;;;;;51.58;21.20;;;3.70;99.90;;;;;;5054514;28;20539;-55
2022/12/02 06:50:03;;;;;;;55.35;19.95;;;3.60;99.90;;;;;;5054505;28;20041;-51
2022/12/02 06:52:33;;;;;;;49.92;20.67;;;3.60;99.90;;;;;;5036614;28;20135;-51
2022/12/02 06:54:59;;;;;;;54.10;21.42;;;3.60;99.90;;;;;;5054296;28;20517;-54
2022/12/02 06:57:26;;;;;;;51.15;19.38;;;3.50;99.90;;;;;;5040018;28;20125;-53
2022/12/02 06:59:52;;;;;;;53.35;19.45;;;3.50;99.90;;;;;;5034425;28;20055;-51
2022/12/02 07:02:29;;;;;;;49.75;19.17;;;3.50;99.90;;;;;;5016655;28;20484;-51
2022/12/02 07:04:55;;;;;;;55.90;20.77;;;3.50;99.90;;;;;;5034366;28;20121;-54
2022/12/02 07:07:25;;;;;;;50.13;19.02;;;3.60;99.90;;;;;;5034230;28;20052;-54
2022/12/02 07:09:57;;;;;;;53.08;21.00;;;3.50;99.90;;;;;;5034646;28;20045;-54
2022/12/02 07:12:44;;;;;;;53.40;20.80;;;3.60;99.90;;;;;;5034005;28;20050;-55
2022/12/02 07:15:24;;;;;;;49.65;19.33;;;3.60;99.90;;;;;;5034097;28;20144;-54
2022/12/02 07:17:50;;;;;;;35.78;15.00;;;3.60;99.90;;;;;;5034344;28;20389;-51
2022/12/02 07:20:43;;;;;;;33.80;13.32;;;3.50;99.90;;;;;;5033957;28;20033;-55
2022/12/02 07:23:18;;;;;;;27.13;12.10;;;3.50;99.90;;;;;;5029912;28;20453;-52
2022/12/02 07:25:44;;;;;;;29.60;12.00;;;3.50;99.90;;;;;;5033030;28;20053;-52
2022/12/02 07:28:26;;;;;;;30.08;13.88;;;3.50;99.90;;;;;;5033999;28;20382;-54
2022/12/02 07:31:20;;;;;;;30.23;12.32;;;3.50;99.90;;;;;;5033674;28;20041;-54
2022/12/02 07:33:46;;;;;;;29.75;12.30;;;3.60;99.90;;;;;;5020848;28;20056;-53
2022/12/02 07:36:12;;;;;;;35.00;13.65;;;3.50;99.90;;;;;;5033863;28;20150;-54
2022/12/02 07:38:38;;;;;;;32.40;15.45;;;3.60;99.90;;;;;;5033730;28;20084;-53
2022/12/02 07:41:04;;;;;;;29.48;12.55;;;3.60;99.90;;;;;;5016015;28;20049;-50
2022/12/02 07:43:30;;;;;;;34.08;14.10;;;3.60;99.90;;;;;;5033608;28;20047;-54
2022/12/02 07:45:57;;;;;;;27.65;12.15;;;3.60;99.90;;;;;;5015840;28;20085;-51
2022/12/02 07:48:22;;;;;;;29.90;13.40;;;3.60;99.90;;;;;;5016111;28;20452;-50
2022/12/02 07:50:49;;;;;;;33.88;14.68;;;3.60;99.90;;;;;;5015548;28;20136;-52
2022/12/02 07:53:14;;;;;;;29.42;13.75;;;3.70;99.90;;;;;;5033633;28;20127;-51
2022/12/02 07:55:40;;;;;;;32.45;13.75;;;3.60;99.90;;;;;;5033473;28;20065;-48
2022/12/02 07:58:06;;;;;;;31.13;12.85;;;3.70;99.90;;;;;;5053084;28;20041;-50
2022/12/02 08:00:32;;;;;;;35.75;14.85;;;3.70;99.90;;;;;;5053111;28;20037;-50
2022/12/02 08:02:57;;;;;;;31.73;14.35;;;3.60;99.90;;;;;;5053001;28;20041;-53
2022/12/02 08:05:23;;;;;;;34.38;15.32;;;3.60;99.90;;;;;;5018733;28;20098;-52
2022/12/02 08:07:49;;;;;;;42.10;16.33;;;3.60;99.90;;;;;;5053089;28;20094;-52
2022/12/02 08:10:15;;;;;;;36.28;14.55;;;3.50;99.90;;;;;;5053160;28;20056;-52
2022/12/02 08:12:41;;;;;;;31.98;14.15;;;3.60;99.90;;;;;;5052834;28;20086;-53
2022/12/02 08:15:09;;;;;;;35.80;14.15;;;3.50;99.90;;;;;;5052974;28;20463;-52
2022/12/02 08:17:35;;;;;;;33.00;14.32;;;3.50;99.90;;;;;;5053034;28;20045;-51
2022/12/02 08:20:06;;;;;;;35.83;14.65;;;3.40;99.90;;;;;;5052907;28;20458;-51
2022/12/02 08:22:31;;;;;;;32.10;13.70;;;3.50;99.90;;;;;;5052675;28;20063;-54
2022/12/02 08:24:57;;;;;;;30.02;13.27;;;3.40;99.90;;;;;;5052707;28;20063;-50
2022/12/02 08:27:23;;;;;;;42.35;17.50;;;3.40;99.90;;;;;;5052592;28;20084;-50
2022/12/02 08:29:49;;;;;;;43.33;17.75;;;3.30;99.90;;;;;;5052665;28;20183;-54
2022/12/02 08:32:19;;;;;;;41.80;17.73;;;3.30;99.90;;;;;;5052706;28;20045;-55
2022/12/02 08:34:45;;;;;;;43.45;16.70;;;3.20;99.90;;;;;;5052900;28;20106;-53
2022/12/02 08:37:11;;;;;;;41.67;18.42;;;3.10;99.90;;;;;;5052427;28;20041;-52
2022/12/02 08:39:37;;;;;;;43.08;17.38;;;3.20;99.90;;;;;;5052625;28;20048;-54
2022/12/02 08:42:04;;;;;;;43.70;17.58;;;3.20;99.90;;;;;;5052362;28;20484;-55
2022/12/02 08:44:30;;;;;;;50.00;18.77;;;3.20;99.90;;;;;;5052675;28;20075;-50
2022/12/02 08:46:56;;;;;;;47.28;18.70;;;3.20;99.90;;;;;;5052557;28;20076;-53
2022/12/02 08:49:22;;;;;;;48.13;19.15;;;3.20;99.90;;;;;;5052452;28;20037;-50
2022/12/02 08:51:47;;;;;;;41.17;17.10;;;3.20;99.90;;;;;;5052271;28;20064;-51
2022/12/02 08:54:14;;;;;;;39.05;15.85;;;3.00;99.90;;;;;;5052403;28;20473;-54
2022/12/02 08:56:41;;;;;;;36.65;15.02;;;3.00;99.90;;;;;;5025976;28;20052;-52
2022/12/02 08:59:07;;;;;;;36.38;15.98;;;3.00;99.90;;;;;;4998413;28;20044;-51
2022/12/02 09:01:33;;;;;;;39.92;14.50;;;2.90;99.90;;;;;;5032241;28;20041;-51
2022/12/02 09:03:58;;;;;;;35.50;15.18;;;2.90;99.90;;;;;;5032112;28;20052;-52
2022/12/02 09:06:24;;;;;;;37.17;15.18;;;2.90;99.90;;;;;;5032302;28;20041;-51
2022/12/02 09:08:50;;;;;;;37.92;15.52;;;2.90;99.90;;;;;;5014619;28;20041;-51
2022/12/02 09:11:15;;;;;;;35.15;14.40;;;2.90;99.90;;;;;;5014421;28;20465;-52
2022/12/02 09:13:41;;;;;;;38.20;14.43;;;2.80;99.90;;;;;;5032408;28;20072;-54
2022/12/02 09:16:07;;;;;;;35.55;14.65;;;2.80;99.90;;;;;;5032067;28;20037;-53
2022/12/02 09:18:33;;;;;;;35.55;14.73;;;2.80;99.90;;;;;;5031894;28;20041;-51
2022/12/02 09:20:58;;;;;;;35.28;13.75;;;2.90;99.90;;;;;;5032463;28;20038;-52
2022/12/02 09:23:24;;;;;;;38.05;14.32;;;2.80;99.90;;;;;;5031811;28;20529;-51
2022/12/02 09:25:50;;;;;;;37.97;14.07;;;2.70;99.90;;;;;;5031806;28;20482;-54
2022/12/02 09:28:15;;;;;;;36.80;13.77;;;2.90;99.90;;;;;;5014059;28;20052;-51
2022/12/02 09:30:41;;;;;;;38.58;16.83;;;2.80;99.90;;;;;;5032045;28;20045;-52
2022/12/02 09:33:07;;;;;;;38.17;14.60;;;2.80;99.90;;;;;;5031957;28;20453;-51
2022/12/02 09:35:32;;;;;;;40.17;15.88;;;2.80;99.90;;;;;;5031875;28;20042;-51
2022/12/02 09:37:58;;;;;;;39.83;16.10;;;2.70;99.90;;;;;;5031747;28;20091;-50
2022/12/02 09:40:24;;;;;;;43.45;15.90;;;2.70;99.90;;;;;;5031628;28;20179;-50
2022/12/02 09:42:50;;;;;;;37.15;14.90;;;2.80;99.90;;;;;;5031664;28;20046;-50
2022/12/02 09:45:16;;;;;;;43.58;16.50;;;2.70;99.90;;;;;;5031536;28;20516;-52
2022/12/02 09:47:42;;;;;;;41.28;15.48;;;2.70;99.90;;;;;;5032808;28;20128;-51
2022/12/02 09:50:12;;;;;;;38.88;15.93;;;2.80;99.90;;;;;;5035776;28;20539;-51
2022/12/02 09:52:38;;;;;;;35.05;14.98;;;2.70;99.90;;;;;;5035528;28;20046;-54
2022/12/02 09:55:11;;;;;;;44.00;17.85;;;2.70;99.90;;;;;;5035632;28;20041;-52
2022/12/02 09:57:37;;;;;;;36.30;15.20;;;2.70;99.90;;;;;;5051946;28;20041;-52
2022/12/02 10:00:07;;;;;;;37.20;14.32;;;2.60;99.90;;;;;;5037943;28;20511;-51
2022/12/02 10:02:48;;;;;;;42.30;16.10;;;2.60;99.90;;;;;;5055586;28;20080;-54
2022/12/02 10:05:17;;;;;;;42.47;16.80;;;2.80;99.90;;;;;;5055490;28;20041;-55
2022/12/02 10:07:43;;;;;;;36.17;14.02;;;2.80;99.90;;;;;;5055288;28;20171;-51
2022/12/02 10:10:21;;;;;;;40.25;16.38;;;2.80;99.90;;;;;;5055293;28;20108;-50
2022/12/02 10:12:47;;;;;;;42.47;17.33;;;2.90;99.90;;;;;;5055273;28;20044;-51
2022/12/02 10:15:16;;;;;;;41.35;15.75;;;2.90;99.90;;;;;;5055219;28;20049;-51
2022/12/02 10:17:44;;;;;;;36.08;14.20;;;2.80;99.90;;;;;;5055269;28;20045;-50
2022/12/02 10:20:18;;;;;;;38.17;15.25;;;2.90;99.90;;;;;;5055034;28;20056;-51
2022/12/02 10:23:13;;;;;;;34.85;14.10;;;2.90;99.90;;;;;;5055191;28;20052;-53
2022/12/02 10:25:45;;;;;;;33.78;13.38;;;3.00;99.90;;;;;;5054766;28;20493;-54
2022/12/02 10:28:20;;;;;;;38.80;14.13;;;3.20;99.90;;;;;;5055169;28;20056;-50
2022/12/02 10:31:12;;;;;;;38.53;14.13;;;3.20;99.90;;;;;;5055118;28;20132;-52
2022/12/02 10:33:44;;;;;;;38.60;16.15;;;3.20;99.90;;;;;;5054730;28;20071;-52
2022/12/02 10:36:09;;;;;;;38.22;16.45;;;3.10;99.90;;;;;;5055091;28;20397;-53
2022/12/02 10:38:40;;;;;;;39.67;15.10;;;3.10;99.90;;;;;;5054718;28;20045;-55
2022/12/02 10:41:27;;;;;;;41.33;16.23;;;3.00;99.90;;;;;;5055020;28;20159;-52
2022/12/02 10:44:14;;;;;;;34.45;15.75;;;3.00;99.90;;;;;;5054671;28;20051;-51
2022/12/02 10:46:40;;;;;;;36.58;15.15;;;3.00;99.90;;;;;;5054737;28;20033;-50
2022/12/02 10:49:16;;;;;;;37.42;16.20;;;3.00;99.90;;;;;;5054465;28;20035;-51
2022/12/02 10:51:42;;;;;;;43.50;18.50;;;3.10;99.90;;;;;;5036546;28;20045;-52
2022/12/02 10:54:21;;;;;;;40.50;15.45;;;2.90;99.90;;;;;;5036691;28;20095;-50
2022/12/02 10:56:47;;;;;;;43.83;18.10;;;3.00;99.90;;;;;;5045555;28;20481;-51
2022/12/02 10:59:15;;;;;;;42.03;18.60;;;3.00;99.90;;;;;;5015391;28;20088;-52
2022/12/02 11:01:42;;;;;;;43.42;20.60;;;3.00;99.90;;;;;;5034402;28;20115;-51
2022/12/02 11:04:12;;;;;;;42.85;17.25;;;3.10;99.90;;;;;;5034349;28;20560;-52
2022/12/02 11:06:38;;;;;;;37.63;18.35;;;3.10;99.90;;;;;;5034558;28;20057;-52
2022/12/02 11:09:04;;;;;;;40.22;17.75;;;3.00;99.90;;;;;;5034403;28;20033;-51
2022/12/02 11:11:30;;;;;;;45.65;19.63;;;3.20;99.90;;;;;;5034264;28;20536;-51
2022/12/02 11:14:01;;;;;;;43.35;18.67;;;3.30;99.90;;;;;;5016241;28;20099;-50
2022/12/02 11:16:27;;;;;;;43.05;19.70;;;3.30;99.90;;;;;;5034500;28;20413;-51
2022/12/02 11:19:03;;;;;;;44.83;21.83;;;3.30;99.90;;;;;;5034485;28;20037;-51
2022/12/02 11:21:28;;;;;;;45.53;21.75;;;3.30;99.90;;;;;;5016689;28;20072;-52
2022/12/02 11:24:19;;;;;;;44.55;21.20;;;3.30;99.90;;;;;;5034020;28;20490;-51
2022/12/02 11:26:59;;;;;;;41.92;20.08;;;3.20;99.90;;;;;;5033914;28;20482;-55
2022/12/02 11:29:40;;;;;;;46.33;21.08;;;3.20;99.90;;;;;;5033705;28;20053;-53
2022/12/02 11:32:16;;;;;;;46.88;21.65;;;3.30;99.90;;;;;;5033824;28;20084;-55
2022/12/02 11:34:46;;;;;;;46.63;21.80;;;3.40;99.90;;;;;;5033809;28;20049;-52
2022/12/02 11:37:32;;;;;;;43.10;20.52;;;3.40;99.90;;;;;;5033745;28;20124;-51
2022/12/02 11:40:00;;;;;;;46.92;22.05;;;3.30;99.90;;;;;;5033813;28;20406;-51
2022/12/02 11:42:31;;;;;;;44.35;20.73;;;3.30;99.90;;;;;;5016174;28;20486;-53
2022/12/02 11:45:14;;;;;;;45.40;20.52;;;3.30;99.90;;;;;;5033595;28;20042;-53
2022/12/02 11:47:54;;;;;;;48.00;22.58;;;3.40;99.90;;;;;;5033821;28;20061;-53
2022/12/02 11:50:31;;;;;;;46.28;22.55;;;3.40;99.90;;;;;;5033553;28;20085;-51
2022/12/02 11:53:15;;;;;;;47.88;22.38;;;3.30;99.90;;;;;;5033531;28;20396;-52
2022/12/02 11:55:44;;;;;;;47.70;22.45;;;3.30;99.90;;;;;;5016009;28;20176;-54
2022/12/02 11:58:25;;;;;;;48.42;22.65;;;3.30;99.90;;;;;;5035442;28;20044;-51
2022/12/02 12:01:06;;;;;;;45.25;22.35;;;3.30;99.90;;;;;;5053222;28;20041;-54
2022/12/02 12:03:32;;;;;;;43.10;22.02;;;3.30;99.90;;;;;;5053403;28;20063;-54
2022/12/02 12:06:13;;;;;;;48.58;22.60;;;3.20;99.90;;;;;;5053139;28;20045;-51
2022/12/02 12:08:47;;;;;;;43.88;20.67;;;3.20;99.90;;;;;;5053382;28;20112;-51
2022/12/02 12:11:28;;;;;;;41.33;20.30;;;3.20;99.90;;;;;;5052591;28;20053;-52
2022/12/02 12:13:57;;;;;;;42.63;21.10;;;3.20;99.90;;;;;;5052989;28;20048;-54
2022/12/02 12:16:25;;;;;;;44.70;20.55;;;3.10;99.90;;;;;;5052845;28;20033;-54
2022/12/02 12:18:52;;;;;;;42.67;20.02;;;3.10;99.90;;;;;;5052864;28;20055;-54
2022/12/02 12:21:30;;;;;;;41.50;20.55;;;3.10;99.90;;;;;;5052821;28;20041;-56
2022/12/02 12:24:16;;;;;;;42.33;20.40;;;3.20;99.90;;;;;;5052546;28;20114;-51
2022/12/02 12:26:43;;;;;;;40.15;19.80;;;3.10;99.90;;;;;;5052790;28;20092;-53
2022/12/02 12:29:09;;;;;;;41.70;19.70;;;3.10;99.90;;;;;;5034698;28;20513;-50
2022/12/02 12:31:35;;;;;;;41.22;20.35;;;3.20;99.90;;;;;;5052726;28;20076;-50
2022/12/02 12:34:01;;;;;;;40.50;18.23;;;3.20;99.90;;;;;;5052879;28;20261;-50
2022/12/02 12:36:27;;;;;;;42.30;18.90;;;3.20;99.90;;;;;;5052619;28;20069;-51
2022/12/02 12:38:53;;;;;;;39.60;17.67;;;3.20;99.90;;;;;;5052641;28;20044;-51
2022/12/02 12:41:18;;;;;;;38.58;18.75;;;3.20;99.90;;;;;;5052374;28;20033;-51
2022/12/02 12:43:44;;;;;;;37.80;18.33;;;3.20;99.90;;;;;;5052294;28;20068;-51
2022/12/02 12:46:10;;;;;;;34.33;16.83;;;3.20;99.90;;;;;;5052536;28;20075;-54
2022/12/02 12:48:36;;;;;;;34.97;17.77;;;3.30;99.90;;;;;;5052483;28;20607;-50
2022/12/02 12:51:01;;;;;;;37.13;19.20;;;3.20;99.90;;;;;;5034349;28;20052;-51
2022/12/02 12:53:27;;;;;;;37.85;18.27;;;3.20;99.90;;;;;;5052405;28;20025;-55